createdAt,value
2023-01-25T00:06:10.470Z,978.41
2023-01-25T00:21:12.564Z,978.33
2023-01-25T00:36:14.539Z,978.56
2023-01-25T00:51:16.493Z,978.82
2023-01-25T01:06:18.583Z,978.99
2023-01-25T01:21:20.807Z,979.15
2023-01-25T01:36:23.011Z,979.27
2023-01-25T01:51:24.969Z,979.42
2023-01-25T02:06:27.028Z,979.43
2023-01-25T02:21:29.017Z,979.36
2023-01-25T02:36:30.987Z,979.4
2023-01-25T02:51:32.915Z,979.44
2023-01-25T03:06:34.875Z,979.55
2023-01-25T03:21:36.995Z,979.57
2023-01-25T03:36:39.032Z,979.53
2023-01-25T03:51:41.282Z,979.86
2023-01-25T04:06:43.387Z,979.85
2023-01-25T04:21:45.280Z,980.03
2023-01-25T04:36:47.100Z,980.13
2023-01-25T04:51:49.030Z,979.94
2023-01-25T05:06:50.986Z,980
2023-01-25T05:21:52.920Z,980.01
2023-01-25T05:36:54.877Z,980.06
2023-01-25T05:51:56.838Z,980.09
2023-01-25T06:06:58.733Z,980.02
2023-01-25T06:22:00.656Z,980.04
2023-01-25T06:37:02.573Z,980.18
2023-01-25T06:52:04.506Z,980.09
2023-01-25T07:07:06.592Z,980.22
2023-01-25T07:22:08.584Z,980.07
2023-01-25T07:37:10.523Z,980.26
2023-01-25T07:52:12.466Z,980.45
2023-01-25T08:07:14.398Z,980.38
2023-01-25T08:22:16.367Z,980.45
2023-01-25T08:37:18.261Z,980.16
2023-01-25T08:52:21.920Z,980.27
2023-01-25T09:07:24.830Z,980.2
2023-01-25T09:22:26.763Z,980.26
2023-01-25T09:37:28.680Z,980.47
2023-01-25T09:52:30.590Z,980.53
2023-01-25T10:07:32.494Z,980.48
2023-01-25T10:22:34.411Z,980.5
2023-01-25T10:37:36.275Z,980.44
2023-01-25T10:52:38.290Z,980.63
2023-01-25T11:07:40.239Z,980.69
2023-01-25T11:22:42.189Z,980.66
2023-01-25T11:37:44.106Z,980.76
2023-01-25T11:52:46.644Z,980.82
2023-01-25T12:07:48.940Z,980.97
2023-01-25T12:22:50.861Z,980.81
2023-01-25T12:37:52.994Z,980.64
2023-01-25T12:52:54.927Z,980.75
2023-01-25T13:07:56.867Z,980.85
2023-01-25T13:22:59.054Z,980.89
2023-01-25T13:38:01.111Z,981.07
2023-01-25T13:53:03.112Z,981.25
2023-01-25T14:08:05.066Z,981.47
2023-01-25T14:23:07.118Z,981.5
2023-01-25T14:38:09.053Z,981.49
2023-01-25T14:53:10.972Z,981.68
2023-01-25T15:08:12.911Z,981.77
2023-01-25T15:23:14.825Z,981.82
2023-01-25T15:38:16.703Z,982.06
2023-01-25T15:53:18.648Z,982.31
2023-01-25T16:08:20.621Z,982.4
2023-01-25T16:23:22.697Z,982.53
2023-01-25T16:38:24.655Z,982.57
2023-01-25T16:53:26.587Z,982.86
2023-01-25T17:08:28.555Z,982.83
2023-01-25T17:23:30.501Z,982.99
2023-01-25T17:38:32.705Z,982.92
2023-01-25T17:53:34.559Z,982.99
2023-01-25T18:08:36.766Z,983.03
2023-01-25T18:23:38.727Z,982.95
2023-01-25T18:38:40.647Z,983.09
2023-01-25T18:53:42.632Z,983.01
2023-01-25T19:08:44.637Z,983.06
2023-01-25T19:23:46.568Z,983.05
2023-01-25T19:38:48.505Z,983
2023-01-25T19:53:50.419Z,982.71
2023-01-25T20:08:52.350Z,982.56
2023-01-25T20:23:54.389Z,982.62
2023-01-25T20:38:56.445Z,982.6
2023-01-25T20:53:58.367Z,982.15
2023-01-25T21:09:00.303Z,982.15
2023-01-25T21:24:02.422Z,982.15
2023-01-25T21:39:04.459Z,981.97
2023-01-25T21:54:06.457Z,982.08
2023-01-25T22:09:08.379Z,982.02
2023-01-25T22:24:10.318Z,982.07
2023-01-25T22:39:12.242Z,982.14
2023-01-25T22:54:14.188Z,982.01
2023-01-25T23:09:16.106Z,981.87
2023-01-25T23:24:18.041Z,981.94
2023-01-25T23:39:20.038Z,981.87
2023-01-25T23:54:21.960Z,981.89
